createdAt,value
2022-09-20T00:00:06.845Z,99903.58
2022-09-20T00:02:55.362Z,99900.92
2022-09-20T00:05:23.716Z,99897.44
2022-09-20T00:07:51.966Z,99896.69
2022-09-20T00:10:22.648Z,99891.77
2022-09-20T00:12:51.372Z,99892.20
2022-09-20T00:15:19.604Z,99894.36
2022-09-20T00:17:48.094Z,99891.17
2022-09-20T00:20:17.215Z,99895.13
2022-09-20T00:22:45.464Z,99891.79
2022-09-20T00:25:13.740Z,99892.98
2022-09-20T00:27:42.426Z,99895.36
2022-09-20T00:30:11.416Z,99898.29
2022-09-20T00:32:40.921Z,99900.30
2022-09-20T00:35:12.784Z,99904.56
2022-09-20T00:37:42.712Z,99906.23
2022-09-20T00:40:16.004Z,99908.04
2022-09-20T00:42:44.499Z,99911.06
2022-09-20T00:45:18.586Z,99914.84
2022-09-20T00:47:54.950Z,99918.38
2022-09-20T00:50:33.934Z,99914.32
2022-09-20T00:53:29.798Z,99912.92
2022-09-20T00:56:06.681Z,99914.79
2022-09-20T00:58:49.772Z,99916.82
2022-09-20T01:01:18.687Z,99912.27
2022-09-20T01:03:49.051Z,99916.48
2022-09-20T01:06:18.137Z,99915.02
2022-09-20T01:08:51.592Z,99914.95
2022-09-20T01:11:20.028Z,99918.72
2022-09-20T01:13:48.675Z,99924.65
2022-09-20T01:16:19.419Z,99925.65
2022-09-20T01:18:49.454Z,99926.81
2022-09-20T01:21:19.543Z,99928.00
2022-09-20T01:24:05.208Z,99928.62
2022-09-20T01:27:06.072Z,99925.92
2022-09-20T01:29:39.142Z,99928.49
2022-09-20T01:32:13.758Z,99928.73
2022-09-20T01:34:48.507Z,99930.12
2022-09-20T01:37:36.899Z,99935.36
2022-09-20T01:40:48.500Z,99934.73
2022-09-20T01:43:30.539Z,99935.14
2022-09-20T01:46:05.058Z,99936.05
2022-09-20T01:48:38.962Z,99934.06
2022-09-20T01:51:35.753Z,99934.16
2022-09-20T01:54:28.776Z,99937.36
2022-09-20T01:57:17.638Z,99935.35
2022-09-20T02:00:07.725Z,99935.29
2022-09-20T02:02:48.086Z,99930.45
2022-09-20T02:05:43.530Z,99931.52
2022-09-20T02:08:49.117Z,99931.06
2022-09-20T02:11:23.516Z,99927.61
2022-09-20T02:14:26.351Z,99925.95
2022-09-20T02:17:02.134Z,99928.30
2022-09-20T02:19:53.775Z,99930.96
2022-09-20T02:22:43.946Z,99933.48
2022-09-20T02:25:38.510Z,99933.52
2022-09-20T02:28:26.035Z,99938.95
2022-09-20T02:31:07.344Z,99939.36
2022-09-20T02:33:42.760Z,99938.73
2022-09-20T02:36:37.457Z,99941.36
2022-09-20T02:39:28.344Z,99942.59
2022-09-20T02:42:16.335Z,99943.63
2022-09-20T02:45:01.725Z,99945.77
2022-09-20T02:47:35.856Z,99942.88
2022-09-20T02:50:23.402Z,99945.21
2022-09-20T02:53:26.892Z,99949.38
2022-09-20T02:56:02.249Z,99947.66
2022-09-20T02:58:41.597Z,99948.16
2022-09-20T03:01:43.979Z,99950.75
2022-09-20T03:04:39.797Z,99954.88
2022-09-20T03:07:10.938Z,99954.16
2022-09-20T03:09:55.700Z,99958.83
2022-09-20T03:12:48.908Z,99958.37
2022-09-20T03:15:47.875Z,99957.25
2022-09-20T03:18:20.330Z,99963.86
2022-09-20T03:21:08.612Z,99963.00
2022-09-20T03:24:09.414Z,99963.78
2022-09-20T03:26:56.652Z,99963.30
2022-09-20T03:29:43.498Z,99963.73
2022-09-20T03:32:42.471Z,99965.99
2022-09-20T03:35:19.370Z,99964.52
2022-09-20T03:38:02.782Z,99964.94
2022-09-20T03:40:31.297Z,99970.39
2022-09-20T03:43:13.961Z,99973.63
2022-09-20T03:46:03.636Z,99976.98
2022-09-20T03:48:55.861Z,99976.70
2022-09-20T03:51:45.668Z,99983.35
2022-09-20T03:54:17.460Z,99987.11
2022-09-20T03:57:04.722Z,99987.73
2022-09-20T03:59:55.322Z,99989.20
2022-09-20T04:03:28.525Z,99995.16
2022-09-20T04:06:34.849Z,99992.80
2022-09-20T04:09:09.511Z,99993.41
2022-09-20T04:12:08.405Z,99989.70
2022-09-20T04:15:07.526Z,99993.56
2022-09-20T04:18:03.841Z,99994.51
2022-09-20T04:21:10.719Z,99998.01
2022-09-20T04:23:41.976Z,100007.75
2022-09-20T04:26:10.677Z,100004.69
2022-09-20T04:28:52.547Z,100009.40
2022-09-20T04:31:30.592Z,100011.30
2022-09-20T04:34:02.199Z,100011.84
2022-09-20T04:36:38.423Z,100018.10
2022-09-20T04:39:24.255Z,100016.88
2022-09-20T04:42:11.221Z,100017.70
2022-09-20T04:45:08.202Z,100015.55
2022-09-20T04:48:09.980Z,100013.95
2022-09-20T04:51:00.171Z,100016.69
2022-09-20T04:53:38.153Z,100016.96
2022-09-20T04:56:55.203Z,100019.09
2022-09-20T04:59:42.038Z,100028.14
2022-09-20T05:02:35.507Z,100025.41
2022-09-20T05:05:27.094Z,100025.93
2022-09-20T05:08:17.522Z,100028.57
2022-09-20T05:10:54.274Z,100032.27
2022-09-20T05:13:38.965Z,100031.33
2022-09-20T05:16:22.589Z,100033.34
2022-09-20T05:19:28.794Z,100033.46
2022-09-20T05:22:38.061Z,100039.29
2022-09-20T05:25:40.922Z,100047.47
2022-09-20T05:28:12.560Z,100045.27
2022-09-20T05:31:08.560Z,100047.34
2022-09-20T05:33:52.984Z,100054.54
2022-09-20T05:36:50.370Z,100057.05
2022-09-20T05:39:51.213Z,100061.34
2022-09-20T05:42:29.390Z,100062.13
2022-09-20T05:45:41.172Z,100063.74
2022-09-20T05:48:24.723Z,100061.15
2022-09-20T05:51:34.007Z,100068.36
2022-09-20T05:54:16.365Z,100071.02
2022-09-20T05:57:06.862Z,100074.30
2022-09-20T06:00:01.207Z,100076.05
2022-09-20T06:02:44.274Z,100074.27
2022-09-20T06:05:17.411Z,100078.36
2022-09-20T06:08:03.920Z,100076.89
2022-09-20T06:10:56.203Z,100078.45
2022-09-20T06:13:49.933Z,100087.68
2022-09-20T06:16:44.757Z,100086.55
2022-09-20T06:20:39.490Z,100085.85
2022-09-20T06:23:10.450Z,100088.15
2022-09-20T06:25:45.549Z,100094.04
2022-09-20T06:28:35.158Z,100094.83
2022-09-20T06:31:10.235Z,100102.41
2022-09-20T06:34:04.059Z,100106.57
2022-09-20T06:36:53.293Z,100103.10
2022-09-20T06:39:59.155Z,100105.35
2022-09-20T06:42:28.874Z,100109.73
2022-09-20T06:44:57.230Z,100111.98
2022-09-20T06:47:27.145Z,100117.76
2022-09-20T06:49:56.818Z,100116.02
2022-09-20T06:52:25.358Z,100113.04
2022-09-20T06:54:56.375Z,100118.58
2022-09-20T06:57:38.108Z,100126.23
2022-09-20T07:00:10.545Z,100125.61
2022-09-20T07:02:39.293Z,100130.41
2022-09-20T07:05:11.873Z,100138.22
2022-09-20T07:07:40.819Z,100135.69
2022-09-20T07:10:09.318Z,100136.36
2022-09-20T07:12:38.189Z,100135.10
2022-09-20T07:15:07.653Z,100136.80
2022-09-20T07:17:35.968Z,100135.88
2022-09-20T07:20:05.095Z,100137.19
2022-09-20T07:22:33.854Z,100137.70
2022-09-20T07:25:02.603Z,100141.63
2022-09-20T07:27:31.079Z,100139.83
2022-09-20T07:29:59.632Z,100143.17
2022-09-20T07:32:28.190Z,100146.27
2022-09-20T07:34:56.635Z,100150.64
2022-09-20T07:37:25.255Z,100151.62
2022-09-20T07:39:53.472Z,100157.45
2022-09-20T07:42:21.869Z,100160.08
2022-09-20T07:44:50.956Z,100154.95
2022-09-20T07:47:19.275Z,100159.27
2022-09-20T07:49:47.861Z,100158.81
2022-09-20T07:52:16.551Z,100164.34
2022-09-20T07:54:46.153Z,100168.05
2022-09-20T07:57:14.879Z,100170.71
2022-09-20T07:59:43.627Z,100169.66
2022-09-20T08:02:16.179Z,100168.20
2022-09-20T08:04:44.631Z,100171.23
2022-09-20T08:07:13.063Z,100170.79
2022-09-20T08:09:41.696Z,100176.23
2022-09-20T08:14:59.599Z,100179.48
2022-09-20T08:17:28.664Z,100179.43
2022-09-20T08:19:56.959Z,100184.44
